sensor_id;sensor_type;location;lat;lon;timestamp;P1;durP1;ratioP1;P2;durP2;ratioP2
15155;SDS011;7678;50.058;8.306;2023-02-28T00:01:34;3.60;;;2.10;;
15155;SDS011;7678;50.058;8.306;2023-02-28T00:04:04;3.23;;;2.40;;
15155;SDS011;7678;50.058;8.306;2023-02-28T00:06:35;4.87;;;2.33;;
15155;SDS011;7678;50.058;8.306;2023-02-28T00:09:07;3.27;;;2.40;;
15155;SDS011;7678;50.058;8.306;2023-02-28T00:11:37;3.23;;;2.13;;
15155;SDS011;7678;50.058;8.306;2023-02-28T00:14:06;3.83;;;2.50;;
15155;SDS011;7678;50.058;8.306;2023-02-28T00:16:34;3.37;;;2.40;;
15155;SDS011;7678;50.058;8.306;2023-02-28T00:19:02;5.03;;;2.53;;
15155;SDS011;7678;50.058;8.306;2023-02-28T00:21:30;3.53;;;2.30;;
15155;SDS011;7678;50.058;8.306;2023-02-28T00:24:00;3.73;;;2.27;;
15155;SDS011;7678;50.058;8.306;2023-02-28T00:26:31;2.77;;;2.10;;
15155;SDS011;7678;50.058;8.306;2023-02-28T00:29:00;3.83;;;2.30;;
15155;SDS011;7678;50.058;8.306;2023-02-28T00:31:28;4.20;;;2.30;;
15155;SDS011;7678;50.058;8.306;2023-02-28T00:33:56;2.97;;;2.30;;
15155;SDS011;7678;50.058;8.306;2023-02-28T00:36:24;3.10;;;2.20;;
15155;SDS011;7678;50.058;8.306;2023-02-28T00:38:53;3.97;;;2.63;;
15155;SDS011;7678;50.058;8.306;2023-02-28T00:41:21;5.03;;;2.60;;
15155;SDS011;7678;50.058;8.306;2023-02-28T00:43:49;4.67;;;2.50;;
15155;SDS011;7678;50.058;8.306;2023-02-28T00:46:21;4.00;;;2.83;;
15155;SDS011;7678;50.058;8.306;2023-02-28T00:48:50;3.40;;;2.37;;
15155;SDS011;7678;50.058;8.306;2023-02-28T00:51:18;5.50;;;2.93;;
15155;SDS011;7678;50.058;8.306;2023-02-28T00:53:46;3.20;;;2.53;;
15155;SDS011;7678;50.058;8.306;2023-02-28T00:56:14;4.13;;;2.87;;
15155;SDS011;7678;50.058;8.306;2023-02-28T00:58:44;4.23;;;2.83;;
15155;SDS011;7678;50.058;8.306;2023-02-28T01:01:13;3.57;;;2.57;;
15155;SDS011;7678;50.058;8.306;2023-02-28T01:03:43;5.10;;;2.83;;
15155;SDS011;7678;50.058;8.306;2023-02-28T01:06:11;3.00;;;2.70;;
15155;SDS011;7678;50.058;8.306;2023-02-28T01:08:41;3.80;;;3.00;;
15155;SDS011;7678;50.058;8.306;2023-02-28T01:11:10;3.87;;;3.13;;
15155;SDS011;7678;50.058;8.306;2023-02-28T01:13:38;4.33;;;3.43;;
15155;SDS011;7678;50.058;8.306;2023-02-28T01:16:08;3.17;;;2.87;;
15155;SDS011;7678;50.058;8.306;2023-02-28T01:18:37;4.80;;;3.43;;
15155;SDS011;7678;50.058;8.306;2023-02-28T01:21:12;3.70;;;3.20;;
15155;SDS011;7678;50.058;8.306;2023-02-28T01:23:41;4.97;;;3.60;;
15155;SDS011;7678;50.058;8.306;2023-02-28T01:26:11;4.87;;;3.40;;
15155;SDS011;7678;50.058;8.306;2023-02-28T01:28:41;5.23;;;4.33;;
15155;SDS011;7678;50.058;8.306;2023-02-28T01:31:10;3.90;;;3.60;;
15155;SDS011;7678;50.058;8.306;2023-02-28T01:33:39;6.07;;;4.00;;
15155;SDS011;7678;50.058;8.306;2023-02-28T01:36:09;5.73;;;4.20;;
15155;SDS011;7678;50.058;8.306;2023-02-28T01:38:40;5.43;;;4.07;;
15155;SDS011;7678;50.058;8.306;2023-02-28T01:41:09;7.17;;;4.20;;
15155;SDS011;7678;50.058;8.306;2023-02-28T01:43:54;4.53;;;3.90;;
15155;SDS011;7678;50.058;8.306;2023-02-28T01:46:27;5.57;;;4.50;;
15155;SDS011;7678;50.058;8.306;2023-02-28T01:48:58;4.73;;;3.93;;
15155;SDS011;7678;50.058;8.306;2023-02-28T01:51:35;4.90;;;4.07;;
15155;SDS011;7678;50.058;8.306;2023-02-28T01:54:12;5.43;;;4.13;;
15155;SDS011;7678;50.058;8.306;2023-02-28T01:56:47;6.70;;;4.40;;
15155;SDS011;7678;50.058;8.306;2023-02-28T01:59:26;4.17;;;3.77;;
15155;SDS011;7678;50.058;8.306;2023-02-28T02:02:02;5.53;;;3.87;;
15155;SDS011;7678;50.058;8.306;2023-02-28T02:04:35;4.43;;;3.90;;
15155;SDS011;7678;50.058;8.306;2023-02-28T02:07:09;5.23;;;3.90;;
15155;SDS011;7678;50.058;8.306;2023-02-28T02:09:38;4.03;;;3.63;;
15155;SDS011;7678;50.058;8.306;2023-02-28T02:12:09;6.07;;;4.37;;
15155;SDS011;7678;50.058;8.306;2023-02-28T02:14:52;4.73;;;3.67;;
15155;SDS011;7678;50.058;8.306;2023-02-28T02:17:32;4.73;;;4.13;;
15155;SDS011;7678;50.058;8.306;2023-02-28T02:20:27;4.73;;;4.03;;
15155;SDS011;7678;50.058;8.306;2023-02-28T02:26:32;4.73;;;3.90;;
15155;SDS011;7678;50.058;8.306;2023-02-28T02:32:25;5.30;;;3.77;;
15155;SDS011;7678;50.058;8.306;2023-02-28T02:35:13;4.60;;;3.50;;
15155;SDS011;7678;50.058;8.306;2023-02-28T02:37:45;4.00;;;3.40;;
15155;SDS011;7678;50.058;8.306;2023-02-28T02:40:19;5.00;;;3.37;;
15155;SDS011;7678;50.058;8.306;2023-02-28T02:42:50;5.27;;;3.53;;
15155;SDS011;7678;50.058;8.306;2023-02-28T02:45:24;4.97;;;3.60;;
15155;SDS011;7678;50.058;8.306;2023-02-28T02:47:56;4.40;;;3.53;;
15155;SDS011;7678;50.058;8.306;2023-02-28T02:50:29;4.67;;;3.33;;
15155;SDS011;7678;50.058;8.306;2023-02-28T02:53:04;6.23;;;3.50;;
15155;SDS011;7678;50.058;8.306;2023-02-28T02:55:37;6.17;;;2.90;;
15155;SDS011;7678;50.058;8.306;2023-02-28T02:58:10;5.33;;;3.53;;
15155;SDS011;7678;50.058;8.306;2023-02-28T03:00:42;3.53;;;3.03;;
15155;SDS011;7678;50.058;8.306;2023-02-28T03:03:15;4.00;;;3.20;;
15155;SDS011;7678;50.058;8.306;2023-02-28T03:05:49;5.73;;;3.70;;
15155;SDS011;7678;50.058;8.306;2023-02-28T03:08:18;4.17;;;3.13;;
15155;SDS011;7678;50.058;8.306;2023-02-28T03:10:47;3.60;;;2.87;;
15155;SDS011;7678;50.058;8.306;2023-02-28T03:13:24;3.47;;;3.10;;
15155;SDS011;7678;50.058;8.306;2023-02-28T03:16:17;4.50;;;3.07;;
15155;SDS011;7678;50.058;8.306;2023-02-28T03:18:58;4.30;;;2.97;;
15155;SDS011;7678;50.058;8.306;2023-02-28T03:21:36;3.07;;;2.70;;
15155;SDS011;7678;50.058;8.306;2023-02-28T03:24:10;3.30;;;2.93;;
15155;SDS011;7678;50.058;8.306;2023-02-28T03:26:42;3.67;;;3.10;;
15155;SDS011;7678;50.058;8.306;2023-02-28T03:29:19;3.07;;;2.70;;
15155;SDS011;7678;50.058;8.306;2023-02-28T03:31:58;3.93;;;3.47;;
15155;SDS011;7678;50.058;8.306;2023-02-28T03:34:33;4.43;;;3.27;;
15155;SDS011;7678;50.058;8.306;2023-02-28T03:37:07;3.50;;;3.20;;
15155;SDS011;7678;50.058;8.306;2023-02-28T03:39:40;4.30;;;3.33;;
15155;SDS011;7678;50.058;8.306;2023-02-28T03:42:12;2.67;;;2.47;;
15155;SDS011;7678;50.058;8.306;2023-02-28T03:44:43;5.13;;;3.03;;
15155;SDS011;7678;50.058;8.306;2023-02-28T03:47:16;4.33;;;3.30;;
15155;SDS011;7678;50.058;8.306;2023-02-28T03:49:50;3.70;;;3.30;;
15155;SDS011;7678;50.058;8.306;2023-02-28T03:52:23;3.30;;;3.00;;
15155;SDS011;7678;50.058;8.306;2023-02-28T03:55:00;3.60;;;3.30;;
15155;SDS011;7678;50.058;8.306;2023-02-28T03:57:34;3.00;;;2.70;;
15155;SDS011;7678;50.058;8.306;2023-02-28T04:00:07;4.13;;;3.40;;
15155;SDS011;7678;50.058;8.306;2023-02-28T04:02:40;4.13;;;3.20;;
15155;SDS011;7678;50.058;8.306;2023-02-28T04:05:09;4.07;;;3.17;;
15155;SDS011;7678;50.058;8.306;2023-02-28T04:07:39;4.10;;;2.90;;
15155;SDS011;7678;50.058;8.306;2023-02-28T04:10:08;3.20;;;2.77;;
15155;SDS011;7678;50.058;8.306;2023-02-28T04:12:40;4.33;;;2.80;;
15155;SDS011;7678;50.058;8.306;2023-02-28T04:15:09;4.13;;;2.67;;
15155;SDS011;7678;50.058;8.306;2023-02-28T04:17:37;3.30;;;2.87;;
15155;SDS011;7678;50.058;8.306;2023-02-28T04:20:06;4.70;;;2.90;;
15155;SDS011;7678;50.058;8.306;2023-02-28T04:22:36;3.43;;;2.70;;
15155;SDS011;7678;50.058;8.306;2023-02-28T04:25:06;4.83;;;3.10;;
15155;SDS011;7678;50.058;8.306;2023-02-28T04:27:35;3.33;;;2.30;;
15155;SDS011;7678;50.058;8.306;2023-02-28T04:30:03;3.87;;;2.70;;
15155;SDS011;7678;50.058;8.306;2023-02-28T04:32:33;2.90;;;2.60;;
15155;SDS011;7678;50.058;8.306;2023-02-28T04:35:01;3.97;;;2.53;;
15155;SDS011;7678;50.058;8.306;2023-02-28T04:37:29;3.07;;;2.50;;
15155;SDS011;7678;50.058;8.306;2023-02-28T04:40:05;3.73;;;2.50;;
15155;SDS011;7678;50.058;8.306;2023-02-28T04:42:34;3.47;;;2.50;;
15155;SDS011;7678;50.058;8.306;2023-02-28T04:45:02;3.00;;;2.60;;
15155;SDS011;7678;50.058;8.306;2023-02-28T04:47:31;3.93;;;2.90;;
15155;SDS011;7678;50.058;8.306;2023-02-28T04:49:59;3.07;;;2.77;;
15155;SDS011;7678;50.058;8.306;2023-02-28T04:52:27;3.03;;;2.63;;
15155;SDS011;7678;50.058;8.306;2023-02-28T04:54:59;6.73;;;2.60;;
15155;SDS011;7678;50.058;8.306;2023-02-28T04:57:29;2.63;;;2.30;;
15155;SDS011;7678;50.058;8.306;2023-02-28T04:59:57;2.70;;;2.40;;
15155;SDS011;7678;50.058;8.306;2023-02-28T05:02:26;4.63;;;3.10;;
15155;SDS011;7678;50.058;8.306;2023-02-28T05:04:54;4.43;;;2.93;;
15155;SDS011;7678;50.058;8.306;2023-02-28T05:07:22;2.67;;;2.40;;
15155;SDS011;7678;50.058;8.306;2023-02-28T05:09:50;4.53;;;2.60;;
15155;SDS011;7678;50.058;8.306;2023-02-28T05:12:20;4.57;;;2.70;;
15155;SDS011;7678;50.058;8.306;2023-02-28T05:14:50;3.40;;;2.47;;
15155;SDS011;7678;50.058;8.306;2023-02-28T05:17:19;3.23;;;2.47;;
15155;SDS011;7678;50.058;8.306;2023-02-28T05:19:49;4.23;;;2.83;;
15155;SDS011;7678;50.058;8.306;2023-02-28T05:22:18;3.73;;;2.80;;
15155;SDS011;7678;50.058;8.306;2023-02-28T05:24:49;3.10;;;2.40;;
15155;SDS011;7678;50.058;8.306;2023-02-28T05:27:17;3.13;;;2.70;;
15155;SDS011;7678;50.058;8.306;2023-02-28T05:29:45;2.53;;;2.20;;
15155;SDS011;7678;50.058;8.306;2023-02-28T05:32:15;2.87;;;2.37;;
15155;SDS011;7678;50.058;8.306;2023-02-28T05:34:43;2.93;;;2.40;;
15155;SDS011;7678;50.058;8.306;2023-02-28T05:37:12;4.03;;;2.13;;
15155;SDS011;7678;50.058;8.306;2023-02-28T05:39:41;6.00;;;2.53;;
15155;SDS011;7678;50.058;8.306;2023-02-28T05:42:10;3.00;;;2.50;;
15155;SDS011;7678;50.058;8.306;2023-02-28T05:44:38;3.37;;;2.47;;
15155;SDS011;7678;50.058;8.306;2023-02-28T05:47:07;3.60;;;2.43;;
15155;SDS011;7678;50.058;8.306;2023-02-28T05:49:43;3.60;;;2.07;;
15155;SDS011;7678;50.058;8.306;2023-02-28T05:52:16;3.60;;;2.60;;
15155;SDS011;7678;50.058;8.306;2023-02-28T05:54:45;3.37;;;2.40;;
15155;SDS011;7678;50.058;8.306;2023-02-28T05:57:16;3.70;;;2.37;;
15155;SDS011;7678;50.058;8.306;2023-02-28T05:59:50;4.93;;;2.53;;
15155;SDS011;7678;50.058;8.306;2023-02-28T06:02:18;3.70;;;2.60;;
15155;SDS011;7678;50.058;8.306;2023-02-28T06:04:47;2.97;;;2.40;;
15155;SDS011;7678;50.058;8.306;2023-02-28T06:07:16;2.50;;;2.17;;
15155;SDS011;7678;50.058;8.306;2023-02-28T06:09:44;3.03;;;2.33;;
15155;SDS011;7678;50.058;8.306;2023-02-28T06:12:15;3.63;;;2.60;;
15155;SDS011;7678;50.058;8.306;2023-02-28T06:14:46;3.87;;;2.30;;
15155;SDS011;7678;50.058;8.306;2023-02-28T06:17:16;3.17;;;2.70;;
15155;SDS011;7678;50.058;8.306;2023-02-28T06:19:44;3.93;;;2.77;;
15155;SDS011;7678;50.058;8.306;2023-02-28T06:22:16;3.20;;;2.37;;
15155;SDS011;7678;50.058;8.306;2023-02-28T06:24:46;3.33;;;2.37;;
15155;SDS011;7678;50.058;8.306;2023-02-28T06:27:15;6.17;;;2.63;;
15155;SDS011;7678;50.058;8.306;2023-02-28T06:29:58;4.60;;;2.60;;
15155;SDS011;7678;50.058;8.306;2023-02-28T06:32:27;2.80;;;2.40;;
15155;SDS011;7678;50.058;8.306;2023-02-28T06:34:55;2.80;;;2.40;;
15155;SDS011;7678;50.058;8.306;2023-02-28T06:37:25;3.57;;;2.60;;
15155;SDS011;7678;50.058;8.306;2023-02-28T06:39:54;6.67;;;2.80;;
15155;SDS011;7678;50.058;8.306;2023-02-28T06:42:23;5.70;;;3.40;;
15155;SDS011;7678;50.058;8.306;2023-02-28T06:44:55;5.53;;;3.67;;
15155;SDS011;7678;50.058;8.306;2023-02-28T06:47:23;5.90;;;3.90;;
15155;SDS011;7678;50.058;8.306;2023-02-28T06:49:53;4.37;;;3.27;;
15155;SDS011;7678;50.058;8.306;2023-02-28T06:52:23;3.50;;;2.50;;
15155;SDS011;7678;50.058;8.306;2023-02-28T06:54:54;3.27;;;2.40;;
15155;SDS011;7678;50.058;8.306;2023-02-28T06:57:30;2.83;;;2.40;;
15155;SDS011;7678;50.058;8.306;2023-02-28T07:00:01;2.70;;;2.40;;
15155;SDS011;7678;50.058;8.306;2023-02-28T07:02:36;3.57;;;2.60;;
15155;SDS011;7678;50.058;8.306;2023-02-28T07:05:05;4.93;;;2.50;;
15155;SDS011;7678;50.058;8.306;2023-02-28T07:07:35;3.80;;;2.70;;
15155;SDS011;7678;50.058;8.306;2023-02-28T07:10:07;4.63;;;2.43;;
15155;SDS011;7678;50.058;8.306;2023-02-28T07:12:37;4.77;;;2.50;;
15155;SDS011;7678;50.058;8.306;2023-02-28T07:15:05;4.13;;;2.33;;
15155;SDS011;7678;50.058;8.306;2023-02-28T07:17:34;4.43;;;2.63;;
15155;SDS011;7678;50.058;8.306;2023-02-28T07:20:02;3.53;;;2.60;;
15155;SDS011;7678;50.058;8.306;2023-02-28T07:22:31;4.93;;;2.60;;
15155;SDS011;7678;50.058;8.306;2023-02-28T07:25:04;3.40;;;2.47;;
15155;SDS011;7678;50.058;8.306;2023-02-28T07:27:33;2.90;;;2.40;;
15155;SDS011;7678;50.058;8.306;2023-02-28T07:30:02;3.50;;;2.40;;
15155;SDS011;7678;50.058;8.306;2023-02-28T07:32:30;2.73;;;2.30;;
15155;SDS011;7678;50.058;8.306;2023-02-28T07:35:04;3.03;;;2.40;;
15155;SDS011;7678;50.058;8.306;2023-02-28T07:37:33;3.07;;;2.60;;
15155;SDS011;7678;50.058;8.306;2023-02-28T07:40:06;4.30;;;2.80;;
15155;SDS011;7678;50.058;8.306;2023-02-28T07:42:37;3.37;;;2.77;;
15155;SDS011;7678;50.058;8.306;2023-02-28T07:45:06;3.37;;;2.50;;
15155;SDS011;7678;50.058;8.306;2023-02-28T07:47:37;4.27;;;2.87;;
15155;SDS011;7678;50.058;8.306;2023-02-28T07:50:06;3.40;;;2.50;;
15155;SDS011;7678;50.058;8.306;2023-02-28T07:52:37;5.77;;;2.63;;
15155;SDS011;7678;50.058;8.306;2023-02-28T07:55:09;3.30;;;2.40;;
15155;SDS011;7678;50.058;8.306;2023-02-28T07:57:37;3.97;;;2.90;;
15155;SDS011;7678;50.058;8.306;2023-02-28T08:00:06;3.80;;;2.57;;
15155;SDS011;7678;50.058;8.306;2023-02-28T08:02:37;4.57;;;2.87;;
15155;SDS011;7678;50.058;8.306;2023-02-28T08:05:05;3.30;;;2.70;;
15155;SDS011;7678;50.058;8.306;2023-02-28T08:07:34;3.43;;;2.33;;
15155;SDS011;7678;50.058;8.306;2023-02-28T08:10:03;4.33;;;2.53;;
15155;SDS011;7678;50.058;8.306;2023-02-28T08:12:34;3.97;;;3.20;;
15155;SDS011;7678;50.058;8.306;2023-02-28T08:15:02;4.73;;;3.13;;
15155;SDS011;7678;50.058;8.306;2023-02-28T08:17:30;3.97;;;2.90;;
15155;SDS011;7678;50.058;8.306;2023-02-28T08:20:00;11.07;;;2.93;;
15155;SDS011;7678;50.058;8.306;2023-02-28T08:22:30;5.73;;;2.87;;
15155;SDS011;7678;50.058;8.306;2023-02-28T08:24:58;6.20;;;2.87;;
15155;SDS011;7678;50.058;8.306;2023-02-28T08:27:26;4.37;;;2.60;;
15155;SDS011;7678;50.058;8.306;2023-02-28T08:29:55;5.70;;;3.00;;
15155;SDS011;7678;50.058;8.306;2023-02-28T08:32:23;3.63;;;2.77;;
15155;SDS011;7678;50.058;8.306;2023-02-28T08:34:55;4.07;;;2.90;;
15155;SDS011;7678;50.058;8.306;2023-02-28T08:37:23;3.97;;;2.90;;
15155;SDS011;7678;50.058;8.306;2023-02-28T08:39:52;4.33;;;3.10;;
15155;SDS011;7678;50.058;8.306;2023-02-28T08:56:55;5.53;;;3.77;;
15155;SDS011;7678;50.058;8.306;2023-02-28T08:59:23;7.03;;;3.53;;
15155;SDS011;7678;50.058;8.306;2023-02-28T09:01:51;5.10;;;3.47;;
15155;SDS011;7678;50.058;8.306;2023-02-28T09:04:19;6.47;;;3.83;;
15155;SDS011;7678;50.058;8.306;2023-02-28T09:06:50;4.53;;;3.53;;
15155;SDS011;7678;50.058;8.306;2023-02-28T09:09:18;5.27;;;3.20;;
15155;SDS011;7678;50.058;8.306;2023-02-28T09:11:46;5.13;;;3.80;;
15155;SDS011;7678;50.058;8.306;2023-02-28T09:14:16;7.27;;;3.87;;
15155;SDS011;7678;50.058;8.306;2023-02-28T09:16:44;4.77;;;3.67;;
15155;SDS011;7678;50.058;8.306;2023-02-28T09:19:12;4.10;;;3.60;;
15155;SDS011;7678;50.058;8.306;2023-02-28T09:21:41;4.77;;;3.43;;
15155;SDS011;7678;50.058;8.306;2023-02-28T09:24:09;8.10;;;4.23;;
15155;SDS011;7678;50.058;8.306;2023-02-28T09:26:40;4.47;;;4.03;;
15155;SDS011;7678;50.058;8.306;2023-02-28T09:29:29;6.00;;;3.53;;
15155;SDS011;7678;50.058;8.306;2023-02-28T09:31:57;5.07;;;3.93;;
15155;SDS011;7678;50.058;8.306;2023-02-28T09:34:26;4.27;;;3.60;;
15155;SDS011;7678;50.058;8.306;2023-02-28T09:36:57;7.73;;;3.80;;
15155;SDS011;7678;50.058;8.306;2023-02-28T09:39:25;5.03;;;3.60;;
15155;SDS011;7678;50.058;8.306;2023-02-28T09:41:57;5.30;;;3.90;;
15155;SDS011;7678;50.058;8.306;2023-02-28T09:44:27;7.23;;;3.63;;
15155;SDS011;7678;50.058;8.306;2023-02-28T09:46:59;6.27;;;3.83;;
15155;SDS011;7678;50.058;8.306;2023-02-28T09:49:34;4.13;;;3.47;;
15155;SDS011;7678;50.058;8.306;2023-02-28T09:52:10;4.33;;;3.80;;
15155;SDS011;7678;50.058;8.306;2023-02-28T09:54:41;6.63;;;3.70;;
15155;SDS011;7678;50.058;8.306;2023-02-28T09:57:13;5.40;;;3.60;;
15155;SDS011;7678;50.058;8.306;2023-02-28T09:59:56;4.30;;;3.40;;
15155;SDS011;7678;50.058;8.306;2023-02-28T10:02:40;5.20;;;3.50;;
15155;SDS011;7678;50.058;8.306;2023-02-28T10:05:26;4.43;;;3.40;;
15155;SDS011;7678;50.058;8.306;2023-02-28T10:08:00;4.27;;;3.33;;
15155;SDS011;7678;50.058;8.306;2023-02-28T10:10:35;4.67;;;3.50;;
15155;SDS011;7678;50.058;8.306;2023-02-28T10:13:07;4.90;;;3.23;;
15155;SDS011;7678;50.058;8.306;2023-02-28T10:15:43;4.30;;;3.53;;
15155;SDS011;7678;50.058;8.306;2023-02-28T10:18:15;4.73;;;3.53;;
15155;SDS011;7678;50.058;8.306;2023-02-28T10:20:48;6.17;;;3.63;;
15155;SDS011;7678;50.058;8.306;2023-02-28T10:23:20;4.63;;;3.37;;
15155;SDS011;7678;50.058;8.306;2023-02-28T10:25:52;4.73;;;3.70;;
15155;SDS011;7678;50.058;8.306;2023-02-28T10:28:24;4.30;;;3.63;;
15155;SDS011;7678;50.058;8.306;2023-02-28T10:30:55;5.50;;;3.40;;
15155;SDS011;7678;50.058;8.306;2023-02-28T10:33:25;4.93;;;3.83;;
15155;SDS011;7678;50.058;8.306;2023-02-28T10:35:57;5.27;;;3.77;;
15155;SDS011;7678;50.058;8.306;2023-02-28T10:38:26;6.00;;;3.80;;
15155;SDS011;7678;50.058;8.306;2023-02-28T10:41:05;4.57;;;3.33;;
15155;SDS011;7678;50.058;8.306;2023-02-28T10:43:35;4.67;;;3.67;;
15155;SDS011;7678;50.058;8.306;2023-02-28T10:46:09;4.80;;;3.50;;
15155;SDS011;7678;50.058;8.306;2023-02-28T10:48:42;4.60;;;3.77;;
15155;SDS011;7678;50.058;8.306;2023-02-28T10:51:14;6.10;;;3.57;;
15155;SDS011;7678;50.058;8.306;2023-02-28T10:53:49;5.03;;;3.73;;
15155;SDS011;7678;50.058;8.306;2023-02-28T10:56:28;4.33;;;3.53;;
15155;SDS011;7678;50.058;8.306;2023-02-28T10:58:58;5.07;;;3.90;;
15155;SDS011;7678;50.058;8.306;2023-02-28T11:01:35;5.37;;;4.23;;
15155;SDS011;7678;50.058;8.306;2023-02-28T11:04:19;6.47;;;4.03;;
15155;SDS011;7678;50.058;8.306;2023-02-28T11:06:59;5.67;;;3.70;;
15155;SDS011;7678;50.058;8.306;2023-02-28T11:09:30;6.33;;;3.80;;
15155;SDS011;7678;50.058;8.306;2023-02-28T11:12:02;5.60;;;3.63;;
15155;SDS011;7678;50.058;8.306;2023-02-28T11:14:32;5.43;;;3.90;;
15155;SDS011;7678;50.058;8.306;2023-02-28T11:17:11;4.50;;;4.10;;
15155;SDS011;7678;50.058;8.306;2023-02-28T11:19:44;6.77;;;4.13;;
15155;SDS011;7678;50.058;8.306;2023-02-28T11:22:16;6.20;;;4.37;;
15155;SDS011;7678;50.058;8.306;2023-02-28T11:24:48;6.87;;;5.20;;
15155;SDS011;7678;50.058;8.306;2023-02-28T11:27:26;6.45;;;4.38;;
15155;SDS011;7678;50.058;8.306;2023-02-28T11:30:22;4.43;;;3.83;;
15155;SDS011;7678;50.058;8.306;2023-02-28T11:32:56;7.85;;;4.40;;
15155;SDS011;7678;50.058;8.306;2023-02-28T11:35:26;5.70;;;4.88;;
15155;SDS011;7678;50.058;8.306;2023-02-28T11:37:57;9.23;;;5.23;;
15155;SDS011;7678;50.058;8.306;2023-02-28T11:40:28;8.47;;;5.13;;
15155;SDS011;7678;50.058;8.306;2023-02-28T11:43:04;6.23;;;5.00;;
15155;SDS011;7678;50.058;8.306;2023-02-28T11:45:44;5.30;;;4.70;;
15155;SDS011;7678;50.058;8.306;2023-02-28T11:48:23;5.70;;;4.70;;
15155;SDS011;7678;50.058;8.306;2023-02-28T11:50:57;6.40;;;4.63;;
15155;SDS011;7678;50.058;8.306;2023-02-28T11:56:36;5.80;;;5.07;;
15155;SDS011;7678;50.058;8.306;2023-02-28T11:59:14;6.57;;;5.13;;
15155;SDS011;7678;50.058;8.306;2023-02-28T12:02:06;5.47;;;4.63;;
15155;SDS011;7678;50.058;8.306;2023-02-28T12:04:59;5.77;;;4.40;;
15155;SDS011;7678;50.058;8.306;2023-02-28T12:07:41;6.43;;;5.67;;
15155;SDS011;7678;50.058;8.306;2023-02-28T12:10:17;5.13;;;4.53;;
15155;SDS011;7678;50.058;8.306;2023-02-28T12:12:50;6.97;;;4.95;;
15155;SDS011;7678;50.058;8.306;2023-02-28T12:15:41;5.47;;;4.47;;
15155;SDS011;7678;50.058;8.306;2023-02-28T12:18:32;4.13;;;3.70;;
15155;SDS011;7678;50.058;8.306;2023-02-28T12:21:14;7.53;;;4.75;;
15155;SDS011;7678;50.058;8.306;2023-02-28T12:23:52;6.80;;;4.53;;
15155;SDS011;7678;50.058;8.306;2023-02-28T12:26:39;5.60;;;4.17;;
15155;SDS011;7678;50.058;8.306;2023-02-28T12:29:10;4.60;;;4.17;;
15155;SDS011;7678;50.058;8.306;2023-02-28T12:31:45;5.87;;;4.33;;
15155;SDS011;7678;50.058;8.306;2023-02-28T12:34:18;6.23;;;4.83;;
15155;SDS011;7678;50.058;8.306;2023-02-28T12:36:51;8.03;;;4.97;;
15155;SDS011;7678;50.058;8.306;2023-02-28T12:39:20;5.63;;;4.30;;
15155;SDS011;7678;50.058;8.306;2023-02-28T12:41:54;5.97;;;5.00;;
15155;SDS011;7678;50.058;8.306;2023-02-28T12:44:28;6.03;;;4.80;;
15155;SDS011;7678;50.058;8.306;2023-02-28T12:47:02;5.13;;;4.30;;
15155;SDS011;7678;50.058;8.306;2023-02-28T12:49:33;6.80;;;4.87;;
15155;SDS011;7678;50.058;8.306;2023-02-28T12:52:05;9.33;;;4.90;;
15155;SDS011;7678;50.058;8.306;2023-02-28T12:54:38;7.33;;;5.77;;
15155;SDS011;7678;50.058;8.306;2023-02-28T12:57:15;6.23;;;4.80;;
15155;SDS011;7678;50.058;8.306;2023-02-28T12:59:50;6.95;;;5.60;;
15155;SDS011;7678;50.058;8.306;2023-02-28T13:02:40;7.37;;;4.80;;
15155;SDS011;7678;50.058;8.306;2023-02-28T13:08:37;6.13;;;4.90;;
15155;SDS011;7678;50.058;8.306;2023-02-28T13:11:25;7.23;;;5.20;;
15155;SDS011;7678;50.058;8.306;2023-02-28T13:13:59;6.17;;;4.87;;
15155;SDS011;7678;50.058;8.306;2023-02-28T13:19:24;7.27;;;5.57;;
15155;SDS011;7678;50.058;8.306;2023-02-28T13:21:54;6.73;;;4.93;;
15155;SDS011;7678;50.058;8.306;2023-02-28T13:24:42;8.57;;;5.60;;
15155;SDS011;7678;50.058;8.306;2023-02-28T13:33:22;7.20;;;4.87;;
15155;SDS011;7678;50.058;8.306;2023-02-28T13:36:10;9.07;;;5.37;;
15155;SDS011;7678;50.058;8.306;2023-02-28T13:38:52;7.03;;;5.50;;
15155;SDS011;7678;50.058;8.306;2023-02-28T13:44:13;6.97;;;5.27;;
15155;SDS011;7678;50.058;8.306;2023-02-28T13:52:53;7.80;;;5.57;;
15155;SDS011;7678;50.058;8.306;2023-02-28T13:55:31;6.67;;;5.50;;
15155;SDS011;7678;50.058;8.306;2023-02-28T13:58:12;7.13;;;5.10;;
15155;SDS011;7678;50.058;8.306;2023-02-28T14:01:10;8.60;;;5.00;;
15155;SDS011;7678;50.058;8.306;2023-02-28T14:03:55;7.40;;;5.53;;
15155;SDS011;7678;50.058;8.306;2023-02-28T14:06:58;9.03;;;5.03;;
15155;SDS011;7678;50.058;8.306;2023-02-28T14:09:29;10.00;;;5.37;;
15155;SDS011;7678;50.058;8.306;2023-02-28T14:15:03;6.83;;;5.27;;
15155;SDS011;7678;50.058;8.306;2023-02-28T14:17:52;5.80;;;4.80;;
15155;SDS011;7678;50.058;8.306;2023-02-28T14:20:22;5.53;;;4.73;;
15155;SDS011;7678;50.058;8.306;2023-02-28T14:22:58;6.97;;;4.80;;
15155;SDS011;7678;50.058;8.306;2023-02-28T14:25:37;6.03;;;5.23;;
15155;SDS011;7678;50.058;8.306;2023-02-28T14:28:14;6.17;;;5.10;;
15155;SDS011;7678;50.058;8.306;2023-02-28T14:30:56;5.97;;;5.10;;
15155;SDS011;7678;50.058;8.306;2023-02-28T14:33:34;5.57;;;4.93;;
15155;SDS011;7678;50.058;8.306;2023-02-28T14:36:11;6.47;;;5.10;;
15155;SDS011;7678;50.058;8.306;2023-02-28T14:38:45;6.47;;;4.67;;
15155;SDS011;7678;50.058;8.306;2023-02-28T14:41:21;7.00;;;5.00;;
15155;SDS011;7678;50.058;8.306;2023-02-28T14:43:53;6.53;;;5.27;;
15155;SDS011;7678;50.058;8.306;2023-02-28T14:46:25;7.17;;;4.90;;
15155;SDS011;7678;50.058;8.306;2023-02-28T14:48:58;7.40;;;4.70;;
15155;SDS011;7678;50.058;8.306;2023-02-28T14:51:26;7.97;;;5.50;;
15155;SDS011;7678;50.058;8.306;2023-02-28T14:53:56;5.83;;;4.80;;
15155;SDS011;7678;50.058;8.306;2023-02-28T14:56:29;7.53;;;5.30;;
15155;SDS011;7678;50.058;8.306;2023-02-28T14:59:03;6.93;;;5.23;;
15155;SDS011;7678;50.058;8.306;2023-02-28T15:01:36;8.20;;;5.23;;
15155;SDS011;7678;50.058;8.306;2023-02-28T15:04:05;8.37;;;5.63;;
15155;SDS011;7678;50.058;8.306;2023-02-28T15:06:34;6.87;;;5.60;;
15155;SDS011;7678;50.058;8.306;2023-02-28T15:09:10;8.20;;;5.40;;
15155;SDS011;7678;50.058;8.306;2023-02-28T15:11:45;6.50;;;4.90;;
15155;SDS011;7678;50.058;8.306;2023-02-28T15:14:19;5.53;;;4.53;;
15155;SDS011;7678;50.058;8.306;2023-02-28T15:16:54;6.57;;;5.20;;
15155;SDS011;7678;50.058;8.306;2023-02-28T15:19:26;7.13;;;5.13;;
15155;SDS011;7678;50.058;8.306;2023-02-28T15:21:59;6.40;;;5.27;;
15155;SDS011;7678;50.058;8.306;2023-02-28T15:24:35;7.87;;;5.17;;
15155;SDS011;7678;50.058;8.306;2023-02-28T15:27:07;8.13;;;5.30;;
15155;SDS011;7678;50.058;8.306;2023-02-28T15:29:43;7.73;;;5.47;;
15155;SDS011;7678;50.058;8.306;2023-02-28T15:32:23;6.60;;;5.37;;
15155;SDS011;7678;50.058;8.306;2023-02-28T15:34:55;5.63;;;4.90;;
15155;SDS011;7678;50.058;8.306;2023-02-28T15:37:36;6.10;;;5.00;;
15155;SDS011;7678;50.058;8.306;2023-02-28T15:40:14;6.53;;;5.10;;
15155;SDS011;7678;50.058;8.306;2023-02-28T15:42:57;5.17;;;4.63;;
15155;SDS011;7678;50.058;8.306;2023-02-28T15:45:37;8.57;;;5.20;;
15155;SDS011;7678;50.058;8.306;2023-02-28T15:50:58;6.33;;;4.93;;
15155;SDS011;7678;50.058;8.306;2023-02-28T15:53:31;5.40;;;4.57;;
15155;SDS011;7678;50.058;8.306;2023-02-28T15:56:06;5.67;;;4.50;;
15155;SDS011;7678;50.058;8.306;2023-02-28T15:58:46;7.07;;;4.60;;
15155;SDS011;7678;50.058;8.306;2023-02-28T16:01:19;6.73;;;5.20;;
15155;SDS011;7678;50.058;8.306;2023-02-28T16:03:54;8.13;;;5.47;;
15155;SDS011;7678;50.058;8.306;2023-02-28T16:06:34;7.17;;;5.27;;
15155;SDS011;7678;50.058;8.306;2023-02-28T16:09:34;10.10;;;5.37;;
15155;SDS011;7678;50.058;8.306;2023-02-28T16:12:04;8.57;;;5.63;;
15155;SDS011;7678;50.058;8.306;2023-02-28T16:14:33;6.70;;;4.93;;
15155;SDS011;7678;50.058;8.306;2023-02-28T16:17:06;10.03;;;5.97;;
15155;SDS011;7678;50.058;8.306;2023-02-28T16:19:43;6.17;;;4.93;;
15155;SDS011;7678;50.058;8.306;2023-02-28T16:22:11;6.57;;;5.00;;
15155;SDS011;7678;50.058;8.306;2023-02-28T16:24:40;7.87;;;5.20;;
15155;SDS011;7678;50.058;8.306;2023-02-28T16:27:14;6.70;;;4.90;;